sensor_id;sensor_type;location;lat;lon;timestamp;pressure;altitude;pressure_sealevel;temperature
15845;BMP180;50807;52.436;13.346;2022-12-07T00:00:17;100794.00;;;8.70
15845;BMP180;50807;52.436;13.346;2022-12-07T00:00:48;100791.00;;;8.70
15845;BMP180;50807;52.436;13.346;2022-12-07T00:01:23;100794.00;;;8.70
15845;BMP180;50807;52.436;13.346;2022-12-07T00:01:55;100802.00;;;8.70
15845;BMP180;50807;52.436;13.346;2022-12-07T00:02:25;100797.00;;;8.70
15845;BMP180;50807;52.436;13.346;2022-12-07T00:02:57;100790.00;;;8.70
15845;BMP180;50807;52.436;13.346;2022-12-07T00:03:29;100793.00;;;8.70
15845;BMP180;50807;52.436;13.346;2022-12-07T00:04:03;100795.00;;;8.70
15845;BMP180;50807;52.436;13.346;2022-12-07T00:04:35;100790.00;;;8.70
15845;BMP180;50807;52.436;13.346;2022-12-07T00:05:07;100794.00;;;8.70
15845;BMP180;50807;52.436;13.346;2022-12-07T00:05:38;100785.00;;;8.70
15845;BMP180;50807;52.436;13.346;2022-12-07T00:06:11;100790.00;;;8.70
15845;BMP180;50807;52.436;13.346;2022-12-07T00:06:45;100788.00;;;8.60
15845;BMP180;50807;52.436;13.346;2022-12-07T00:07:17;100793.00;;;8.70
15845;BMP180;50807;52.436;13.346;2022-12-07T00:07:49;100786.00;;;8.70
15845;BMP180;50807;52.436;13.346;2022-12-07T00:08:20;100786.00;;;8.70
15845;BMP180;50807;52.436;13.346;2022-12-07T00:08:50;100799.00;;;8.70
15845;BMP180;50807;52.436;13.346;2022-12-07T00:09:22;100791.00;;;8.70
15845;BMP180;50807;52.436;13.346;2022-12-07T00:09:53;100788.00;;;8.70
15845;BMP180;50807;52.436;13.346;2022-12-07T00:10:23;100794.00;;;8.70
15845;BMP180;50807;52.436;13.346;2022-12-07T00:11:00;100786.00;;;8.60
15845;BMP180;50807;52.436;13.346;2022-12-07T00:11:32;100788.00;;;8.60
15845;BMP180;50807;52.436;13.346;2022-12-07T00:12:05;100782.00;;;8.60
15845;BMP180;50807;52.436;13.346;2022-12-07T00:12:36;100783.00;;;8.60
15845;BMP180;50807;52.436;13.346;2022-12-07T00:13:07;100788.00;;;8.60
15845;BMP180;50807;52.436;13.346;2022-12-07T00:13:39;100790.00;;;8.60
15845;BMP180;50807;52.436;13.346;2022-12-07T00:14:13;100794.00;;;8.60
15845;BMP180;50807;52.436;13.346;2022-12-07T00:14:44;100792.00;;;8.60
15845;BMP180;50807;52.436;13.346;2022-12-07T00:15:15;100789.00;;;8.60
15845;BMP180;50807;52.436;13.346;2022-12-07T00:15:47;100788.00;;;8.60
15845;BMP180;50807;52.436;13.346;2022-12-07T00:16:20;100776.00;;;8.60
15845;BMP180;50807;52.436;13.346;2022-12-07T00:16:52;100787.00;;;8.60
15845;BMP180;50807;52.436;13.346;2022-12-07T00:17:23;100794.00;;;8.70
15845;BMP180;50807;52.436;13.346;2022-12-07T00:17:54;100786.00;;;8.60
15845;BMP180;50807;52.436;13.346;2022-12-07T00:18:25;100787.00;;;8.60
15845;BMP180;50807;52.436;13.346;2022-12-07T00:18:57;100783.00;;;8.60
15845;BMP180;50807;52.436;13.346;2022-12-07T00:19:29;100783.00;;;8.60
15845;BMP180;50807;52.436;13.346;2022-12-07T00:19:59;100786.00;;;8.60
15845;BMP180;50807;52.436;13.346;2022-12-07T00:20:30;100783.00;;;8.60
15845;BMP180;50807;52.436;13.346;2022-12-07T00:21:06;100785.00;;;8.60
15845;BMP180;50807;52.436;13.346;2022-12-07T00:21:37;100790.00;;;8.60
15845;BMP180;50807;52.436;13.346;2022-12-07T00:22:09;100784.00;;;8.60
15845;BMP180;50807;52.436;13.346;2022-12-07T00:22:40;100794.00;;;8.60
15845;BMP180;50807;52.436;13.346;2022-12-07T00:23:11;100794.00;;;8.60
15845;BMP180;50807;52.436;13.346;2022-12-07T00:23:44;100785.00;;;8.60
15845;BMP180;50807;52.436;13.346;2022-12-07T00:24:16;100787.00;;;8.60
15845;BMP180;50807;52.436;13.346;2022-12-07T00:24:47;100785.00;;;8.60
15845;BMP180;50807;52.436;13.346;2022-12-07T00:25:18;100782.00;;;8.60
15845;BMP180;50807;52.436;13.346;2022-12-07T00:25:49;100788.00;;;8.60
15845;BMP180;50807;52.436;13.346;2022-12-07T00:26:22;100784.00;;;8.50
15845;BMP180;50807;52.436;13.346;2022-12-07T00:26:54;100782.00;;;8.60
15845;BMP180;50807;52.436;13.346;2022-12-07T00:27:27;100779.00;;;8.50
15845;BMP180;50807;52.436;13.346;2022-12-07T00:27:59;100783.00;;;8.60
15845;BMP180;50807;52.436;13.346;2022-12-07T00:28:29;100777.00;;;8.50
15845;BMP180;50807;52.436;13.346;2022-12-07T00:29:04;100788.00;;;8.50
15845;BMP180;50807;52.436;13.346;2022-12-07T00:29:36;100788.00;;;8.50
15845;BMP180;50807;52.436;13.346;2022-12-07T00:30:08;100780.00;;;8.50
15845;BMP180;50807;52.436;13.346;2022-12-07T00:30:39;100777.00;;;8.50
15845;BMP180;50807;52.436;13.346;2022-12-07T00:31:13;100781.00;;;8.50
15845;BMP180;50807;52.436;13.346;2022-12-07T00:31:44;100780.00;;;8.50
15845;BMP180;50807;52.436;13.346;2022-12-07T00:32:16;100781.00;;;8.50
15845;BMP180;50807;52.436;13.346;2022-12-07T00:32:47;100784.00;;;8.50
15845;BMP180;50807;52.436;13.346;2022-12-07T00:33:18;100770.00;;;8.50
15845;BMP180;50807;52.436;13.346;2022-12-07T00:33:50;100774.00;;;8.50
15845;BMP180;50807;52.436;13.346;2022-12-07T00:34:21;100779.00;;;8.50
15845;BMP180;50807;52.436;13.346;2022-12-07T00:34:53;100774.00;;;8.50
15845;BMP180;50807;52.436;13.346;2022-12-07T00:35:23;100776.00;;;8.50
15845;BMP180;50807;52.436;13.346;2022-12-07T00:35:56;100773.00;;;8.40
15845;BMP180;50807;52.436;13.346;2022-12-07T00:36:27;100762.00;;;8.50
15845;BMP180;50807;52.436;13.346;2022-12-07T00:36:59;100764.00;;;8.50
15845;BMP180;50807;52.436;13.346;2022-12-07T00:37:29;100765.00;;;8.40
15845;BMP180;50807;52.436;13.346;2022-12-07T00:38:00;100762.00;;;8.40
15845;BMP180;50807;52.436;13.346;2022-12-07T00:38:35;100771.00;;;8.40
15845;BMP180;50807;52.436;13.346;2022-12-07T00:39:05;100768.00;;;8.40
15845;BMP180;50807;52.436;13.346;2022-12-07T00:39:36;100764.00;;;8.40
15845;BMP180;50807;52.436;13.346;2022-12-07T00:40:09;100763.00;;;8.40
15845;BMP180;50807;52.436;13.346;2022-12-07T00:40:40;100765.00;;;8.40
15845;BMP180;50807;52.436;13.346;2022-12-07T00:41:14;100760.00;;;8.30
15845;BMP180;50807;52.436;13.346;2022-12-07T00:41:45;100762.00;;;8.30
15845;BMP180;50807;52.436;13.346;2022-12-07T00:42:16;100769.00;;;8.30
15845;BMP180;50807;52.436;13.346;2022-12-07T00:42:48;100777.00;;;8.30
15845;BMP180;50807;52.436;13.346;2022-12-07T00:43:19;100766.00;;;8.30
15845;BMP180;50807;52.436;13.346;2022-12-07T00:43:51;100766.00;;;8.20
15845;BMP180;50807;52.436;13.346;2022-12-07T00:44:22;100768.00;;;8.20
15845;BMP180;50807;52.436;13.346;2022-12-07T00:44:53;100766.00;;;8.20
15845;BMP180;50807;52.436;13.346;2022-12-07T00:45:24;100760.00;;;8.20
15845;BMP180;50807;52.436;13.346;2022-12-07T00:45:56;100766.00;;;8.20
15845;BMP180;50807;52.436;13.346;2022-12-07T00:46:27;100761.00;;;8.20
15845;BMP180;50807;52.436;13.346;2022-12-07T00:46:58;100758.00;;;8.20
15845;BMP180;50807;52.436;13.346;2022-12-07T00:47:29;100757.00;;;8.20
15845;BMP180;50807;52.436;13.346;2022-12-07T00:48:00;100755.00;;;8.10
15845;BMP180;50807;52.436;13.346;2022-12-07T00:48:31;100758.00;;;8.10
15845;BMP180;50807;52.436;13.346;2022-12-07T00:49:03;100769.00;;;8.10
15845;BMP180;50807;52.436;13.346;2022-12-07T00:49:34;100760.00;;;8.10
15845;BMP180;50807;52.436;13.346;2022-12-07T00:50:06;100761.00;;;8.10
15845;BMP180;50807;52.436;13.346;2022-12-07T00:50:38;100760.00;;;8.10
15845;BMP180;50807;52.436;13.346;2022-12-07T00:51:11;100762.00;;;8.00
15845;BMP180;50807;52.436;13.346;2022-12-07T00:51:42;100758.00;;;8.10
15845;BMP180;50807;52.436;13.346;2022-12-07T00:52:14;100765.00;;;8.10
15845;BMP180;50807;52.436;13.346;2022-12-07T00:52:45;100760.00;;;8.10
15845;BMP180;50807;52.436;13.346;2022-12-07T00:53:16;100755.00;;;8.10
15845;BMP180;50807;52.436;13.346;2022-12-07T00:53:49;100760.00;;;8.00
15845;BMP180;50807;52.436;13.346;2022-12-07T00:54:20;100768.00;;;8.00
15845;BMP180;50807;52.436;13.346;2022-12-07T00:54:52;100762.00;;;8.00
15845;BMP180;50807;52.436;13.346;2022-12-07T00:55:23;100758.00;;;8.00
15845;BMP180;50807;52.436;13.346;2022-12-07T00:55:54;100760.00;;;8.00
15845;BMP180;50807;52.436;13.346;2022-12-07T00:56:28;100753.00;;;8.00
15845;BMP180;50807;52.436;13.346;2022-12-07T00:56:59;100761.00;;;8.00
15845;BMP180;50807;52.436;13.346;2022-12-07T00:57:31;100765.00;;;8.00
15845;BMP180;50807;52.436;13.346;2022-12-07T00:58:04;100752.00;;;8.00
15845;BMP180;50807;52.436;13.346;2022-12-07T00:58:35;100755.00;;;8.00
15845;BMP180;50807;52.436;13.346;2022-12-07T00:59:07;100753.00;;;8.00
15845;BMP180;50807;52.436;13.346;2022-12-07T00:59:37;100761.00;;;8.00
15845;BMP180;50807;52.436;13.346;2022-12-07T01:00:09;100751.00;;;8.00
15845;BMP180;50807;52.436;13.346;2022-12-07T01:00:42;100760.00;;;8.00
15845;BMP180;50807;52.436;13.346;2022-12-07T01:01:13;100756.00;;;8.00
15845;BMP180;50807;52.436;13.346;2022-12-07T01:01:44;100754.00;;;8.00
15845;BMP180;50807;52.436;13.346;2022-12-07T01:02:15;100753.00;;;8.00
15845;BMP180;50807;52.436;13.346;2022-12-07T01:02:46;100756.00;;;8.00
15845;BMP180;50807;52.436;13.346;2022-12-07T01:03:17;100753.00;;;8.00
15845;BMP180;50807;52.436;13.346;2022-12-07T01:03:49;100751.00;;;7.90
15845;BMP180;50807;52.436;13.346;2022-12-07T01:04:20;100752.00;;;8.00
15845;BMP180;50807;52.436;13.346;2022-12-07T01:04:52;100763.00;;;8.00
15845;BMP180;50807;52.436;13.346;2022-12-07T01:05:22;100745.00;;;8.00
15845;BMP180;50807;52.436;13.346;2022-12-07T01:05:55;100753.00;;;8.00
15845;BMP180;50807;52.436;13.346;2022-12-07T01:06:27;100757.00;;;8.00
15845;BMP180;50807;52.436;13.346;2022-12-07T01:06:58;100755.00;;;8.00
15845;BMP180;50807;52.436;13.346;2022-12-07T01:07:29;100749.00;;;8.00
15845;BMP180;50807;52.436;13.346;2022-12-07T01:08:00;100751.00;;;8.00
15845;BMP180;50807;52.436;13.346;2022-12-07T01:08:33;100746.00;;;8.00
15845;BMP180;50807;52.436;13.346;2022-12-07T01:09:04;100758.00;;;8.00
15845;BMP180;50807;52.436;13.346;2022-12-07T01:09:36;100752.00;;;8.00
15845;BMP180;50807;52.436;13.346;2022-12-07T01:10:08;100743.00;;;8.00
15845;BMP180;50807;52.436;13.346;2022-12-07T01:10:39;100749.00;;;8.00
15845;BMP180;50807;52.436;13.346;2022-12-07T01:11:15;100748.00;;;8.00
15845;BMP180;50807;52.436;13.346;2022-12-07T01:11:46;100745.00;;;8.00
15845;BMP180;50807;52.436;13.346;2022-12-07T01:12:17;100741.00;;;8.00
15845;BMP180;50807;52.436;13.346;2022-12-07T01:12:48;100751.00;;;8.00
15845;BMP180;50807;52.436;13.346;2022-12-07T01:13:20;100736.00;;;8.00
15845;BMP180;50807;52.436;13.346;2022-12-07T01:13:54;100742.00;;;8.00
15845;BMP180;50807;52.436;13.346;2022-12-07T01:14:24;100743.00;;;8.00
15845;BMP180;50807;52.436;13.346;2022-12-07T01:14:56;100747.00;;;8.00
15845;BMP180;50807;52.436;13.346;2022-12-07T01:15:27;100745.00;;;8.00
15845;BMP180;50807;52.436;13.346;2022-12-07T01:16:00;100743.00;;;8.00
15845;BMP180;50807;52.436;13.346;2022-12-07T01:16:32;100742.00;;;8.00
15845;BMP180;50807;52.436;13.346;2022-12-07T01:17:03;100744.00;;;8.10
15845;BMP180;50807;52.436;13.346;2022-12-07T01:17:34;100749.00;;;8.00
15845;BMP180;50807;52.436;13.346;2022-12-07T01:18:06;100746.00;;;8.00
15845;BMP180;50807;52.436;13.346;2022-12-07T01:18:37;100743.00;;;8.00
15845;BMP180;50807;52.436;13.346;2022-12-07T01:19:08;100742.00;;;8.00
15845;BMP180;50807;52.436;13.346;2022-12-07T01:19:40;100752.00;;;8.10
15845;BMP180;50807;52.436;13.346;2022-12-07T01:20:12;100737.00;;;8.10
15845;BMP180;50807;52.436;13.346;2022-12-07T01:20:43;100748.00;;;8.00
15845;BMP180;50807;52.436;13.346;2022-12-07T01:21:17;100742.00;;;8.00
15845;BMP180;50807;52.436;13.346;2022-12-07T01:21:48;100741.00;;;8.10
15845;BMP180;50807;52.436;13.346;2022-12-07T01:22:18;100744.00;;;8.10
15845;BMP180;50807;52.436;13.346;2022-12-07T01:22:50;100747.00;;;8.10
15845;BMP180;50807;52.436;13.346;2022-12-07T01:23:21;100736.00;;;8.10
15845;BMP180;50807;52.436;13.346;2022-12-07T01:23:53;100741.00;;;8.10
15845;BMP180;50807;52.436;13.346;2022-12-07T01:24:25;100746.00;;;8.10
15845;BMP180;50807;52.436;13.346;2022-12-07T01:24:55;100740.00;;;8.10
15845;BMP180;50807;52.436;13.346;2022-12-07T01:25:26;100741.00;;;8.10
15845;BMP180;50807;52.436;13.346;2022-12-07T01:26:00;100743.00;;;8.10
15845;BMP180;50807;52.436;13.346;2022-12-07T01:26:31;100739.00;;;8.10
15845;BMP180;50807;52.436;13.346;2022-12-07T01:27:02;100740.00;;;8.10
15845;BMP180;50807;52.436;13.346;2022-12-07T01:27:35;100730.00;;;8.00
15845;BMP180;50807;52.436;13.346;2022-12-07T01:28:06;100737.00;;;8.10
15845;BMP180;50807;52.436;13.346;2022-12-07T01:28:39;100735.00;;;8.00
15845;BMP180;50807;52.436;13.346;2022-12-07T01:29:10;100730.00;;;8.00
15845;BMP180;50807;52.436;13.346;2022-12-07T01:29:41;100740.00;;;8.00
15845;BMP180;50807;52.436;13.346;2022-12-07T01:30:13;100739.00;;;8.10
15845;BMP180;50807;52.436;13.346;2022-12-07T01:30:44;100730.00;;;8.00
15845;BMP180;50807;52.436;13.346;2022-12-07T01:31:17;100735.00;;;8.00
15845;BMP180;50807;52.436;13.346;2022-12-07T01:31:49;100737.00;;;8.00
15845;BMP180;50807;52.436;13.346;2022-12-07T01:32:21;100727.00;;;8.00
15845;BMP180;50807;52.436;13.346;2022-12-07T01:32:51;100731.00;;;8.00
15845;BMP180;50807;52.436;13.346;2022-12-07T01:33:22;100728.00;;;8.00
15845;BMP180;50807;52.436;13.346;2022-12-07T01:33:56;100729.00;;;8.00
15845;BMP180;50807;52.436;13.346;2022-12-07T01:34:28;100728.00;;;8.00
15845;BMP180;50807;52.436;13.346;2022-12-07T01:34:59;100728.00;;;8.00
15845;BMP180;50807;52.436;13.346;2022-12-07T01:35:29;100726.00;;;8.00
15845;BMP180;50807;52.436;13.346;2022-12-07T01:36:14;100732.00;;;8.00
15845;BMP180;50807;52.436;13.346;2022-12-07T01:36:45;100725.00;;;8.00
15845;BMP180;50807;52.436;13.346;2022-12-07T01:37:16;100726.00;;;8.00
15845;BMP180;50807;52.436;13.346;2022-12-07T01:37:47;100726.00;;;8.00
15845;BMP180;50807;52.436;13.346;2022-12-07T01:38:18;100727.00;;;8.00
15845;BMP180;50807;52.436;13.346;2022-12-07T01:38:52;100726.00;;;8.00
15845;BMP180;50807;52.436;13.346;2022-12-07T01:39:26;100721.00;;;8.00
15845;BMP180;50807;52.436;13.346;2022-12-07T01:39:57;100725.00;;;8.00
15845;BMP180;50807;52.436;13.346;2022-12-07T01:40:28;100722.00;;;8.00
15845;BMP180;50807;52.436;13.346;2022-12-07T01:41:02;100713.00;;;8.00
15845;BMP180;50807;52.436;13.346;2022-12-07T01:41:36;100729.00;;;8.00
15845;BMP180;50807;52.436;13.346;2022-12-07T01:42:09;100728.00;;;7.90
15845;BMP180;50807;52.436;13.346;2022-12-07T01:42:41;100725.00;;;7.90
15845;BMP180;50807;52.436;13.346;2022-12-07T01:43:18;100728.00;;;7.90
15845;BMP180;50807;52.436;13.346;2022-12-07T01:44:14;100728.00;;;7.70
15845;BMP180;50807;52.436;13.346;2022-12-07T01:46:14;100734.00;;;7.60
15845;BMP180;50807;52.436;13.346;2022-12-07T01:46:48;100726.00;;;7.70
15845;BMP180;50807;52.436;13.346;2022-12-07T01:47:19;100725.00;;;7.70
15845;BMP180;50807;52.436;13.346;2022-12-07T01:47:53;100734.00;;;7.70
15845;BMP180;50807;52.436;13.346;2022-12-07T01:48:29;100726.00;;;7.70
15845;BMP180;50807;52.436;13.346;2022-12-07T01:49:06;100726.00;;;7.70
15845;BMP180;50807;52.436;13.346;2022-12-07T01:49:42;100728.00;;;7.70
15845;BMP180;50807;52.436;13.346;2022-12-07T01:50:14;100731.00;;;7.70
15845;BMP180;50807;52.436;13.346;2022-12-07T01:50:48;100729.00;;;7.70
15845;BMP180;50807;52.436;13.346;2022-12-07T01:51:21;100717.00;;;7.70
15845;BMP180;50807;52.436;13.346;2022-12-07T01:52:01;100727.00;;;7.60
15845;BMP180;50807;52.436;13.346;2022-12-07T01:52:36;100732.00;;;7.70
15845;BMP180;50807;52.436;13.346;2022-12-07T01:53:10;100721.00;;;7.60
15845;BMP180;50807;52.436;13.346;2022-12-07T01:53:45;100721.00;;;7.60
15845;BMP180;50807;52.436;13.346;2022-12-07T01:54:18;100718.00;;;7.60
15845;BMP180;50807;52.436;13.346;2022-12-07T01:54:54;100701.00;;;7.60
15845;BMP180;50807;52.436;13.346;2022-12-07T01:55:27;100701.00;;;7.60
15845;BMP180;50807;52.436;13.346;2022-12-07T01:56:00;100711.00;;;7.60
15845;BMP180;50807;52.436;13.346;2022-12-07T01:56:33;100714.00;;;7.60
15845;BMP180;50807;52.436;13.346;2022-12-07T01:57:06;100716.00;;;7.60
15845;BMP180;50807;52.436;13.346;2022-12-07T01:57:42;100712.00;;;7.60
15845;BMP180;50807;52.436;13.346;2022-12-07T01:58:16;100712.00;;;7.50
15845;BMP180;50807;52.436;13.346;2022-12-07T01:58:49;100712.00;;;7.60
15845;BMP180;50807;52.436;13.346;2022-12-07T01:59:24;100714.00;;;7.50
15845;BMP180;50807;52.436;13.346;2022-12-07T01:59:57;100707.00;;;7.60
15845;BMP180;50807;52.436;13.346;2022-12-07T02:00:28;100714.00;;;7.60
15845;BMP180;50807;52.436;13.346;2022-12-07T02:00:59;100706.00;;;7.60
15845;BMP180;50807;52.436;13.346;2022-12-07T02:01:31;100698.00;;;7.60
15845;BMP180;50807;52.436;13.346;2022-12-07T02:02:07;100705.00;;;7.50
15845;BMP180;50807;52.436;13.346;2022-12-07T02:02:44;100701.00;;;7.50
15845;BMP180;50807;52.436;13.346;2022-12-07T02:03:22;100705.00;;;7.50
15845;BMP180;50807;52.436;13.346;2022-12-07T02:03:55;100707.00;;;7.50
15845;BMP180;50807;52.436;13.346;2022-12-07T02:04:26;100701.00;;;7.50
15845;BMP180;50807;52.436;13.346;2022-12-07T02:05:01;100693.00;;;7.50
15845;BMP180;50807;52.436;13.346;2022-12-07T02:05:34;100696.00;;;7.50
15845;BMP180;50807;52.436;13.346;2022-12-07T02:06:07;100695.00;;;7.50
15845;BMP180;50807;52.436;13.346;2022-12-07T02:06:42;100704.00;;;7.50
15845;BMP180;50807;52.436;13.346;2022-12-07T02:07:14;100704.00;;;7.50
15845;BMP180;50807;52.436;13.346;2022-12-07T02:07:47;100695.00;;;7.50
15845;BMP180;50807;52.436;13.346;2022-12-07T02:08:20;100687.00;;;7.50
15845;BMP180;50807;52.436;13.346;2022-12-07T02:08:52;100703.00;;;7.50
15845;BMP180;50807;52.436;13.346;2022-12-07T02:09:24;100691.00;;;7.50
15845;BMP180;50807;52.436;13.346;2022-12-07T02:09:55;100689.00;;;7.50
15845;BMP180;50807;52.436;13.346;2022-12-07T02:10:29;100696.00;;;7.40
15845;BMP180;50807;52.436;13.346;2022-12-07T02:11:05;100696.00;;;7.40
15845;BMP180;50807;52.436;13.346;2022-12-07T02:11:36;100704.00;;;7.40
15845;BMP180;50807;52.436;13.346;2022-12-07T02:12:07;100694.00;;;7.40
15845;BMP180;50807;52.436;13.346;2022-12-07T02:12:39;100701.00;;;7.40
15845;BMP180;50807;52.436;13.346;2022-12-07T02:13:15;100696.00;;;7.40
15845;BMP180;50807;52.436;13.346;2022-12-07T02:13:48;100699.00;;;7.40
15845;BMP180;50807;52.436;13.346;2022-12-07T02:14:21;100693.00;;;7.40
15845;BMP180;50807;52.436;13.346;2022-12-07T02:14:52;100695.00;;;7.40
15845;BMP180;50807;52.436;13.346;2022-12-07T02:15:28;100688.00;;;7.30
15845;BMP180;50807;52.436;13.346;2022-12-07T02:16:25;100708.00;;;7.10
15845;BMP180;50807;52.436;13.346;2022-12-07T02:17:11;100687.00;;;7.20
15845;BMP180;50807;52.436;13.346;2022-12-07T02:17:55;100690.00;;;7.10
15845;BMP180;50807;52.436;13.346;2022-12-07T02:18:44;100684.00;;;7.10
15845;BMP180;50807;52.436;13.346;2022-12-07T02:20:57;100691.00;;;6.90
15845;BMP180;50807;52.436;13.346;2022-12-07T02:21:40;100690.00;;;7.00
15845;BMP180;50807;52.436;13.346;2022-12-07T02:22:39;100698.00;;;6.90
15845;BMP180;50807;52.436;13.346;2022-12-07T02:23:51;100692.00;;;6.80
15845;BMP180;50807;52.436;13.346;2022-12-07T02:24:45;100693.00;;;6.80
15845;BMP180;50807;52.436;13.346;2022-12-07T02:25:37;100688.00;;;6.80
15845;BMP180;50807;52.436;13.346;2022-12-07T02:26:41;100692.00;;;6.70
15845;BMP180;50807;52.436;13.346;2022-12-07T02:27:41;100686.00;;;6.60
15845;BMP180;50807;52.436;13.346;2022-12-07T02:28:28;100698.00;;;6.70
15845;BMP180;50807;52.436;13.346;2022-12-07T02:29:14;100696.00;;;6.70
15845;BMP180;50807;52.436;13.346;2022-12-07T02:29:54;100692.00;;;6.80
15845;BMP180;50807;52.436;13.346;2022-12-07T02:30:33;100688.00;;;6.80
15845;BMP180;50807;52.436;13.346;2022-12-07T02:31:14;100690.00;;;6.80
15845;BMP180;50807;52.436;13.346;2022-12-07T02:31:56;100690.00;;;6.80
15845;BMP180;50807;52.436;13.346;2022-12-07T02:32:43;100690.00;;;6.70
15845;BMP180;50807;52.436;13.346;2022-12-07T02:33:19;100680.00;;;6.80
15845;BMP180;50807;52.436;13.346;2022-12-07T02:34:03;100691.00;;;6.70
15845;BMP180;50807;52.436;13.346;2022-12-07T02:34:46;100687.00;;;6.70
15845;BMP180;50807;52.436;13.346;2022-12-07T02:35:24;100685.00;;;6.70
15845;BMP180;50807;52.436;13.346;2022-12-07T02:36:02;100688.00;;;6.70
15845;BMP180;50807;52.436;13.346;2022-12-07T02:36:40;100684.00;;;6.70
15845;BMP180;50807;52.436;13.346;2022-12-07T02:37:26;100688.00;;;6.70
15845;BMP180;50807;52.436;13.346;2022-12-07T02:38:11;100690.00;;;6.60
15845;BMP180;50807;52.436;13.346;2022-12-07T02:38:50;100685.00;;;6.60
15845;BMP180;50807;52.436;13.346;2022-12-07T02:39:32;100688.00;;;6.60
15845;BMP180;50807;52.436;13.346;2022-12-07T02:40:12;100692.00;;;6.60
15845;BMP180;50807;52.436;13.346;2022-12-07T02:40:51;100688.00;;;6.60
15845;BMP180;50807;52.436;13.346;2022-12-07T02:41:28;100676.00;;;6.60
15845;BMP180;50807;52.436;13.346;2022-12-07T02:42:09;100680.00;;;6.60
15845;BMP180;50807;52.436;13.346;2022-12-07T02:42:45;100678.00;;;6.60
15845;BMP180;50807;52.436;13.346;2022-12-07T02:43:23;100678.00;;;6.50
15845;BMP180;50807;52.436;13.346;2022-12-07T02:43:59;100680.00;;;6.50
15845;BMP180;50807;52.436;13.346;2022-12-07T02:44:33;100678.00;;;6.60
15845;BMP180;50807;52.436;13.346;2022-12-07T02:45:08;100677.00;;;6.60
15845;BMP180;50807;52.436;13.346;2022-12-07T02:45:42;100672.00;;;6.60
15845;BMP180;50807;52.436;13.346;2022-12-07T02:46:21;100669.00;;;6.50
15845;BMP180;50807;52.436;13.346;2022-12-07T02:46:57;100671.00;;;6.50
15845;BMP180;50807;52.436;13.346;2022-12-07T02:47:31;100666.00;;;6.50
15845;BMP180;50807;52.436;13.346;2022-12-07T02:48:07;100673.00;;;6.50
15845;BMP180;50807;52.436;13.346;2022-12-07T02:48:41;100672.00;;;6.50
15845;BMP180;50807;52.436;13.346;2022-12-07T02:49:13;100666.00;;;6.60
15845;BMP180;50807;52.436;13.346;2022-12-07T02:49:46;100664.00;;;6.60
15845;BMP180;50807;52.436;13.346;2022-12-07T02:50:19;100672.00;;;6.60
15845;BMP180;50807;52.436;13.346;2022-12-07T02:50:52;100672.00;;;6.60
15845;BMP180;50807;52.436;13.346;2022-12-07T02:51:25;100666.00;;;6.60
15845;BMP180;50807;52.436;13.346;2022-12-07T02:51:56;100670.00;;;6.60
15845;BMP180;50807;52.436;13.346;2022-12-07T02:52:26;100669.00;;;6.60
15845;BMP180;50807;52.436;13.346;2022-12-07T02:52:58;100668.00;;;6.60
15845;BMP180;50807;52.436;13.346;2022-12-07T02:53:31;100669.00;;;6.50
15845;BMP180;50807;52.436;13.346;2022-12-07T02:54:07;100674.00;;;6.60
15845;BMP180;50807;52.436;13.346;2022-12-07T02:54:39;100668.00;;;6.60
15845;BMP180;50807;52.436;13.346;2022-12-07T02:55:11;100665.00;;;6.60
15845;BMP180;50807;52.436;13.346;2022-12-07T02:55:43;100670.00;;;6.60
15845;BMP180;50807;52.436;13.346;2022-12-07T02:56:27;100663.00;;;6.50
15845;BMP180;50807;52.436;13.346;2022-12-07T02:57:11;100660.00;;;6.50
15845;BMP180;50807;52.436;13.346;2022-12-07T02:58:06;100669.00;;;6.30
15845;BMP180;50807;52.436;13.346;2022-12-07T02:58:54;100673.00;;;6.30
15845;BMP180;50807;52.436;13.346;2022-12-07T02:59:46;100670.00;;;6.30
15845;BMP180;50807;52.436;13.346;2022-12-07T03:00:20;100665.00;;;6.30
15845;BMP180;50807;52.436;13.346;2022-12-07T03:01:08;100659.00;;;6.20
15845;BMP180;50807;52.436;13.346;2022-12-07T03:01:57;100656.00;;;6.20
15845;BMP180;50807;52.436;13.346;2022-12-07T03:02:43;100654.00;;;6.20
15845;BMP180;50807;52.436;13.346;2022-12-07T03:03:18;100658.00;;;6.20
15845;BMP180;50807;52.436;13.346;2022-12-07T03:04:03;100650.00;;;6.10
15845;BMP180;50807;52.436;13.346;2022-12-07T03:04:48;100642.00;;;6.20
15845;BMP180;50807;52.436;13.346;2022-12-07T03:05:43;100658.00;;;6.10
15845;BMP180;50807;52.436;13.346;2022-12-07T03:06:22;100643.00;;;6.10
15845;BMP180;50807;52.436;13.346;2022-12-07T03:07:05;100655.00;;;6.10
15845;BMP180;50807;52.436;13.346;2022-12-07T03:07:49;100656.00;;;6.10
15845;BMP180;50807;52.436;13.346;2022-12-07T03:08:31;100656.00;;;6.10
15845;BMP180;50807;52.436;13.346;2022-12-07T03:09:14;100659.00;;;6.10
15845;BMP180;50807;52.436;13.346;2022-12-07T03:09:55;100662.00;;;6.10
15845;BMP180;50807;52.436;13.346;2022-12-07T03:10:41;100655.00;;;6.10
15845;BMP180;50807;52.436;13.346;2022-12-07T03:11:21;100652.00;;;6.10
15845;BMP180;50807;52.436;13.346;2022-12-07T03:12:05;100641.00;;;6.10
15845;BMP180;50807;52.436;13.346;2022-12-07T03:12:45;100655.00;;;6.10
15845;BMP180;50807;52.436;13.346;2022-12-07T03:13:25;100646.00;;;6.10
15845;BMP180;50807;52.436;13.346;2022-12-07T03:14:04;100650.00;;;6.10
15845;BMP180;50807;52.436;13.346;2022-12-07T03:14:50;100650.00;;;6.10
15845;BMP180;50807;52.436;13.346;2022-12-07T03:15:31;100644.00;;;6.10
15845;BMP180;50807;52.436;13.346;2022-12-07T03:16:12;100642.00;;;6.00
15845;BMP180;50807;52.436;13.346;2022-12-07T03:16:51;100643.00;;;6.10
15845;BMP180;50807;52.436;13.346;2022-12-07T03:17:27;100639.00;;;6.10
15845;BMP180;50807;52.436;13.346;2022-12-07T03:18:02;100638.00;;;6.10
15845;BMP180;50807;52.436;13.346;2022-12-07T03:18:41;100635.00;;;6.10
15845;BMP180;50807;52.436;13.346;2022-12-07T03:19:16;100642.00;;;6.20
15845;BMP180;50807;52.436;13.346;2022-12-07T03:19:52;100634.00;;;6.10
15845;BMP180;50807;52.436;13.346;2022-12-07T03:20:30;100635.00;;;6.20